createdAt,value
2023-07-18T00:00:34.149Z,17.00
2023-07-18T00:03:20.733Z,17.00
2023-07-18T00:06:06.719Z,17.10
2023-07-18T00:08:52.496Z,17.00
2023-07-18T00:11:38.381Z,17.00
2023-07-18T00:14:24.449Z,17.00
2023-07-18T00:17:09.726Z,16.90
2023-07-18T00:19:55.434Z,16.90
2023-07-18T00:22:49.541Z,16.80
2023-07-18T00:25:35.357Z,16.80
2023-07-18T00:28:20.924Z,16.70
2023-07-18T00:31:06.468Z,16.60
2023-07-18T00:33:52.643Z,16.50
2023-07-18T00:36:38.648Z,16.50
2023-07-18T00:39:24.757Z,16.50
2023-07-18T00:42:10.261Z,16.50
2023-07-18T00:44:55.858Z,16.40
2023-07-18T00:47:44.782Z,16.40
2023-07-18T00:50:30.764Z,16.30
2023-07-18T00:53:16.088Z,16.30
2023-07-18T00:56:02.608Z,16.30
2023-07-18T00:58:48.274Z,16.30
2023-07-18T01:01:35.703Z,16.20
2023-07-18T01:04:22.105Z,16.30
2023-07-18T01:07:07.924Z,16.20
2023-07-18T01:09:54.857Z,16.20
2023-07-18T01:12:40.214Z,16.20
2023-07-18T01:15:31.399Z,16.10
2023-07-18T01:18:17.150Z,16.20
2023-07-18T01:21:05.667Z,16.10
2023-07-18T01:23:51.901Z,16.10
2023-07-18T01:26:37.601Z,16.00
2023-07-18T01:29:23.390Z,16.10
2023-07-18T01:32:09.034Z,16.00
2023-07-18T01:35:00.300Z,16.00
2023-07-18T01:37:46.223Z,16.00
2023-07-18T01:40:31.521Z,16.00
2023-07-18T01:43:16.849Z,16.00
2023-07-18T01:46:05.148Z,15.90
2023-07-18T01:48:50.669Z,15.90
2023-07-18T01:51:38.069Z,15.90
2023-07-18T01:54:24.096Z,15.90
2023-07-18T01:57:11.520Z,15.90
2023-07-18T01:59:56.958Z,15.80
2023-07-18T02:02:43.175Z,15.80
2023-07-18T02:05:34.556Z,15.80
2023-07-18T02:08:20.431Z,15.80
2023-07-18T02:11:05.956Z,15.80
2023-07-18T02:13:51.829Z,15.80
2023-07-18T02:16:40.907Z,15.80
2023-07-18T02:19:26.290Z,15.80
2023-07-18T02:22:11.818Z,15.80
2023-07-18T02:24:57.788Z,15.80
2023-07-18T02:27:43.493Z,15.80
2023-07-18T02:30:29.037Z,15.70
2023-07-18T02:33:18.582Z,15.70
2023-07-18T02:36:07.465Z,15.60
2023-07-18T02:38:53.201Z,15.60
2023-07-18T02:41:41.393Z,15.50
2023-07-18T02:44:27.366Z,15.40
2023-07-18T02:47:13.844Z,15.40
2023-07-18T02:49:59.653Z,15.40
2023-07-18T02:52:45.410Z,15.30
2023-07-18T02:55:34.209Z,15.30
2023-07-18T02:58:19.862Z,15.30
2023-07-18T03:01:05.434Z,15.30
2023-07-18T03:03:51.270Z,15.30
2023-07-18T03:06:37.327Z,15.30
2023-07-18T03:09:23.145Z,15.30
2023-07-18T03:12:08.871Z,15.30
2023-07-18T03:14:56.041Z,15.30
2023-07-18T03:17:42.793Z,15.30
2023-07-18T03:20:28.438Z,15.30
2023-07-18T03:23:13.961Z,15.30
2023-07-18T03:25:59.695Z,15.30
2023-07-18T03:28:44.944Z,15.30
2023-07-18T03:31:30.576Z,15.20
2023-07-18T03:34:16.056Z,15.20
2023-07-18T03:37:03.152Z,15.20
2023-07-18T03:39:48.765Z,15.20
2023-07-18T03:42:35.306Z,15.20
2023-07-18T03:45:24.079Z,15.10
2023-07-18T03:48:09.959Z,15.10
2023-07-18T03:50:55.470Z,15.10
2023-07-18T03:53:41.209Z,15.00
2023-07-18T03:56:26.654Z,15.00
2023-07-18T03:59:11.876Z,15.00
2023-07-18T04:01:58.930Z,15.00
2023-07-18T04:04:44.801Z,15.00
2023-07-18T04:07:30.574Z,15.00
2023-07-18T04:10:15.944Z,15.00
2023-07-18T04:13:04.067Z,14.90
2023-07-18T04:15:49.333Z,14.90
2023-07-18T04:18:35.658Z,15.00
2023-07-18T04:21:21.204Z,15.00
2023-07-18T04:24:09.851Z,15.00
2023-07-18T04:26:55.386Z,15.00
2023-07-18T04:29:41.005Z,15.10
2023-07-18T04:32:26.688Z,15.10
2023-07-18T04:35:12.109Z,15.10
2023-07-18T04:38:01.118Z,15.20
2023-07-18T04:40:47.668Z,15.20
2023-07-18T04:43:32.899Z,15.20
2023-07-18T04:46:18.574Z,15.20
2023-07-18T04:49:04.474Z,15.30
2023-07-18T04:51:51.832Z,15.40
2023-07-18T04:54:38.920Z,15.40
2023-07-18T04:57:25.467Z,15.50
2023-07-18T05:00:11.760Z,15.60
2023-07-18T05:02:58.168Z,15.70
2023-07-18T05:05:46.349Z,15.80
2023-07-18T05:08:31.833Z,15.90
2023-07-18T05:11:19.299Z,16.00
2023-07-18T05:14:05.283Z,16.00
2023-07-18T05:16:52.637Z,16.10
2023-07-18T05:19:38.033Z,16.10
2023-07-18T05:22:24.390Z,16.10
2023-07-18T05:25:11.466Z,16.10
2023-07-18T05:27:59.588Z,16.10
2023-07-18T05:30:46.705Z,16.00
2023-07-18T05:33:31.839Z,16.00
2023-07-18T05:36:17.748Z,16.00
2023-07-18T05:39:04.296Z,16.00
2023-07-18T05:41:49.807Z,16.10
2023-07-18T05:44:35.436Z,16.10
2023-07-18T05:47:20.758Z,16.20
2023-07-18T05:50:07.334Z,16.30
2023-07-18T05:52:53.098Z,16.30
2023-07-18T05:55:39.679Z,16.40
2023-07-18T05:58:25.006Z,16.40
2023-07-18T06:01:13.835Z,16.40
2023-07-18T06:04:00.230Z,16.50
2023-07-18T06:06:46.108Z,16.60
2023-07-18T06:09:34.525Z,16.60
2023-07-18T06:12:23.315Z,16.60
2023-07-18T06:15:09.420Z,16.70
2023-07-18T06:17:56.935Z,16.80
2023-07-18T06:20:42.770Z,16.80
2023-07-18T06:23:31.616Z,16.90
2023-07-18T06:26:16.938Z,17.00
2023-07-18T06:29:02.424Z,17.00
2023-07-18T06:31:49.187Z,17.10
2023-07-18T06:34:42.619Z,17.20
2023-07-18T06:37:28.271Z,17.30
2023-07-18T06:40:14.355Z,17.30
2023-07-18T06:43:00.346Z,17.40
2023-07-18T06:45:46.989Z,17.50
2023-07-18T06:48:32.462Z,17.50
2023-07-18T06:51:18.366Z,17.60
2023-07-18T06:54:04.290Z,17.60
2023-07-18T06:56:49.948Z,17.70
2023-07-18T06:59:35.858Z,17.70
2023-07-18T07:02:21.621Z,17.80
2023-07-18T07:05:07.335Z,17.80
2023-07-18T07:07:54.464Z,17.80
2023-07-18T07:10:43.881Z,17.90
2023-07-18T07:13:29.673Z,18.00
2023-07-18T07:16:15.709Z,18.00
2023-07-18T07:19:01.039Z,18.10
2023-07-18T07:21:46.858Z,18.10
2023-07-18T07:24:32.505Z,18.20
2023-07-18T07:27:18.100Z,18.20
2023-07-18T07:30:03.790Z,18.20
2023-07-18T07:32:52.871Z,18.40
2023-07-18T07:35:38.454Z,18.50
2023-07-18T07:38:23.885Z,18.60
2023-07-18T07:41:09.469Z,18.70
2023-07-18T07:43:55.125Z,18.80
2023-07-18T07:46:43.366Z,19.00
2023-07-18T07:49:28.820Z,19.10
2023-07-18T07:52:14.415Z,19.30
2023-07-18T07:55:00.284Z,19.40
2023-07-18T07:57:46.687Z,19.40
2023-07-18T08:00:32.453Z,19.40
2023-07-18T08:03:18.063Z,19.50
2023-07-18T08:06:03.665Z,19.60
2023-07-18T08:08:49.398Z,19.70
2023-07-18T08:11:34.654Z,19.80
2023-07-18T08:14:20.360Z,19.90
2023-07-18T08:17:07.275Z,20.20
2023-07-18T08:19:52.689Z,20.40
2023-07-18T08:22:38.232Z,20.60
2023-07-18T08:25:24.059Z,20.70
2023-07-18T08:28:09.535Z,20.90
2023-07-18T08:30:54.988Z,21.00
2023-07-18T08:33:40.549Z,21.10
2023-07-18T08:36:27.148Z,21.20
2023-07-18T08:39:12.709Z,21.30
2023-07-18T08:41:59.461Z,21.50
2023-07-18T08:44:46.672Z,21.60
2023-07-18T08:47:32.941Z,21.70
2023-07-18T08:50:19.040Z,21.90
2023-07-18T08:53:06.383Z,22.00
2023-07-18T08:55:52.722Z,22.30
2023-07-18T08:58:39.000Z,22.40
2023-07-18T09:01:25.869Z,22.60
2023-07-18T09:04:11.610Z,22.70
2023-07-18T09:06:59.254Z,22.90
2023-07-18T09:09:48.105Z,23.10
2023-07-18T09:12:37.247Z,23.30
2023-07-18T09:15:23.624Z,23.40
2023-07-18T09:18:14.254Z,23.60
2023-07-18T09:21:09.698Z,23.70
2023-07-18T09:23:55.091Z,23.70
2023-07-18T09:26:43.494Z,23.60
2023-07-18T09:29:29.573Z,23.60
2023-07-18T09:32:22.638Z,23.80
2023-07-18T09:35:11.415Z,23.90
2023-07-18T09:37:57.375Z,24.10
2023-07-18T09:40:45.442Z,24.20
2023-07-18T09:43:31.546Z,24.30
2023-07-18T09:46:18.486Z,24.30
2023-07-18T09:49:04.718Z,24.20
2023-07-18T09:52:04.685Z,24.30
2023-07-18T09:54:53.777Z,24.30
2023-07-18T09:57:42.101Z,24.10
2023-07-18T10:00:28.180Z,24.20
2023-07-18T10:03:14.302Z,24.40
2023-07-18T10:06:03.228Z,24.40
2023-07-18T10:08:49.488Z,24.50
2023-07-18T10:12:01.398Z,24.70
2023-07-18T10:14:52.239Z,24.80
2023-07-18T10:17:40.498Z,24.60
2023-07-18T10:20:37.031Z,24.50
2023-07-18T10:23:40.991Z,24.50
2023-07-18T10:26:33.476Z,24.60
2023-07-18T10:29:22.445Z,24.70
2023-07-18T10:32:34.149Z,24.70
2023-07-18T10:35:44.510Z,24.80
2023-07-18T10:38:38.698Z,24.90
2023-07-18T10:41:24.044Z,24.90
2023-07-18T10:44:16.502Z,24.80
2023-07-18T10:47:02.549Z,24.80
2023-07-18T10:49:48.826Z,24.80
2023-07-18T10:52:36.302Z,24.70
2023-07-18T10:55:22.774Z,24.80
2023-07-18T10:58:18.179Z,24.80
2023-07-18T11:01:03.727Z,25.10
2023-07-18T11:03:49.620Z,25.30
2023-07-18T11:06:36.038Z,25.40
2023-07-18T11:09:22.601Z,25.60
2023-07-18T11:12:18.010Z,25.60
2023-07-18T11:15:04.200Z,25.50
2023-07-18T11:17:50.703Z,25.60
2023-07-18T11:20:37.191Z,25.50
2023-07-18T11:23:22.960Z,25.80
2023-07-18T11:26:13.718Z,26.10
2023-07-18T11:29:01.142Z,26.60
2023-07-18T11:31:46.614Z,27.00
2023-07-18T11:34:32.462Z,27.40
2023-07-18T11:37:20.559Z,27.80
2023-07-18T11:40:07.249Z,28.30
2023-07-18T11:42:56.466Z,28.60
2023-07-18T11:45:42.408Z,28.60
2023-07-18T11:48:30.737Z,29.10
2023-07-18T11:51:16.025Z,29.70
2023-07-18T11:54:02.906Z,30.40
2023-07-18T11:56:48.204Z,30.70
2023-07-18T11:59:34.089Z,31.50
2023-07-18T12:02:24.093Z,32.20
2023-07-18T12:05:12.855Z,33.00
2023-07-18T12:07:58.604Z,33.80
2023-07-18T12:10:53.072Z,34.60
2023-07-18T12:13:45.538Z,35.10
2023-07-18T12:16:32.529Z,36.00
2023-07-18T12:19:21.831Z,36.10
2023-07-18T12:22:07.403Z,35.20
2023-07-18T12:24:53.170Z,35.00
2023-07-18T12:27:39.942Z,36.00
2023-07-18T12:30:25.795Z,36.80
2023-07-18T12:33:11.621Z,37.20
2023-07-18T12:35:58.334Z,37.60
2023-07-18T12:38:44.032Z,38.50
2023-07-18T12:41:29.728Z,39.30
2023-07-18T12:44:19.643Z,40.00
2023-07-18T12:47:06.017Z,40.10
2023-07-18T12:52:40.810Z,41.20
2023-07-18T12:55:27.517Z,41.60
2023-07-18T12:58:14.454Z,41.60
2023-07-18T13:01:00.068Z,41.50
2023-07-18T13:03:45.754Z,41.50
2023-07-18T13:06:32.534Z,41.60
2023-07-18T13:09:18.407Z,42.00
2023-07-18T13:12:06.758Z,42.10
2023-07-18T13:14:55.487Z,41.40
2023-07-18T13:17:41.650Z,40.40
2023-07-18T13:20:27.949Z,38.80
2023-07-18T13:23:13.466Z,38.80
2023-07-18T13:25:59.384Z,39.90
2023-07-18T13:28:44.876Z,40.80
2023-07-18T13:31:31.326Z,41.50
2023-07-18T13:34:19.107Z,42.30
2023-07-18T13:37:04.794Z,42.90
2023-07-18T13:39:50.601Z,43.40
2023-07-18T13:42:36.195Z,43.80
2023-07-18T13:45:22.225Z,43.10
2023-07-18T13:48:09.819Z,42.30
2023-07-18T13:50:55.188Z,43.20
2023-07-18T13:53:42.645Z,42.00
2023-07-18T13:56:28.363Z,40.20
2023-07-18T13:59:13.984Z,38.30
2023-07-18T14:01:59.345Z,37.00
2023-07-18T14:04:46.305Z,36.20
2023-07-18T14:07:31.943Z,35.20
2023-07-18T14:10:17.448Z,34.70
2023-07-18T14:13:08.548Z,34.20
2023-07-18T14:15:53.820Z,33.90
2023-07-18T14:18:39.712Z,33.50
2023-07-18T14:21:26.339Z,33.10
2023-07-18T14:24:11.831Z,32.90
2023-07-18T14:26:57.130Z,34.10
2023-07-18T14:29:42.660Z,33.90
2023-07-18T14:32:28.472Z,33.60
2023-07-18T14:35:14.766Z,35.30
2023-07-18T14:38:00.346Z,37.00
2023-07-18T14:40:49.177Z,36.50
2023-07-18T14:43:35.285Z,36.10
2023-07-18T14:46:22.714Z,35.70
2023-07-18T14:49:08.575Z,35.30
2023-07-18T14:51:54.357Z,35.60
2023-07-18T14:54:40.202Z,35.70
2023-07-18T14:57:26.924Z,35.40
2023-07-18T15:00:13.700Z,35.00
2023-07-18T15:02:59.207Z,34.60
2023-07-18T15:05:44.903Z,34.70
2023-07-18T15:08:30.446Z,35.50
2023-07-18T15:11:15.789Z,35.20
2023-07-18T15:14:01.570Z,34.10
2023-07-18T15:16:46.992Z,33.30
2023-07-18T15:19:32.692Z,33.10
2023-07-18T15:22:21.025Z,33.70
2023-07-18T15:25:07.816Z,33.50
2023-07-18T15:27:53.303Z,33.70
2023-07-18T15:30:39.008Z,33.80
2023-07-18T15:33:27.144Z,33.10
2023-07-18T15:36:13.511Z,33.60
2023-07-18T15:38:58.869Z,33.50
2023-07-18T15:41:44.386Z,32.90
2023-07-18T15:44:29.992Z,34.10
2023-07-18T15:47:15.542Z,34.40
2023-07-18T15:50:01.522Z,35.70
2023-07-18T15:52:47.159Z,37.00
2023-07-18T15:55:32.760Z,37.80
2023-07-18T15:58:18.460Z,38.30
2023-07-18T16:01:05.240Z,38.60
2023-07-18T16:03:51.910Z,39.00
2023-07-18T16:06:38.703Z,38.50
2023-07-18T16:09:29.060Z,37.60
2023-07-18T16:12:14.385Z,37.10
2023-07-18T16:15:00.273Z,36.90
2023-07-18T16:17:45.924Z,36.90
2023-07-18T16:20:33.150Z,37.00
2023-07-18T16:23:21.885Z,36.60
2023-07-18T16:26:08.875Z,35.20
2023-07-18T16:28:54.516Z,34.20
2023-07-18T16:31:40.342Z,33.60
2023-07-18T16:34:26.080Z,33.40
2023-07-18T16:37:12.312Z,33.20
2023-07-18T16:39:58.188Z,32.90
2023-07-18T16:42:43.966Z,32.70
2023-07-18T16:45:29.691Z,32.70
2023-07-18T16:48:19.377Z,32.60
2023-07-18T16:51:04.664Z,32.20
2023-07-18T16:53:50.582Z,31.40
2023-07-18T16:56:36.865Z,30.60
2023-07-18T16:59:22.444Z,30.00
2023-07-18T17:02:08.233Z,29.50
2023-07-18T17:04:53.613Z,29.00
2023-07-18T17:07:39.007Z,28.60
2023-07-18T17:10:27.073Z,28.40
2023-07-18T17:13:12.825Z,28.50
2023-07-18T17:16:01.052Z,28.70
2023-07-18T17:18:46.966Z,29.00
2023-07-18T17:21:32.209Z,29.10
2023-07-18T17:24:18.306Z,29.00
2023-07-18T17:27:06.806Z,28.90
2023-07-18T17:29:52.568Z,28.30
2023-07-18T17:32:38.126Z,27.90
2023-07-18T17:35:24.660Z,27.80
2023-07-18T17:38:10.195Z,27.50
2023-07-18T17:40:55.448Z,27.30
2023-07-18T17:43:41.561Z,27.00
2023-07-18T17:46:27.344Z,26.70
2023-07-18T17:49:15.606Z,26.30
2023-07-18T17:52:00.948Z,25.90
2023-07-18T17:54:46.590Z,25.60
2023-07-18T17:57:32.456Z,25.20
2023-07-18T18:00:18.204Z,24.90
2023-07-18T18:03:05.144Z,24.60
2023-07-18T18:05:52.637Z,24.50
2023-07-18T18:08:38.076Z,24.20
2023-07-18T18:11:23.469Z,24.10
2023-07-18T18:14:08.986Z,23.80
2023-07-18T18:16:54.907Z,23.70
2023-07-18T18:19:40.297Z,23.60
2023-07-18T18:22:25.799Z,23.50
2023-07-18T18:25:11.378Z,23.50
2023-07-18T18:27:56.775Z,23.40
2023-07-18T18:30:42.233Z,23.30
2023-07-18T18:33:27.678Z,23.30
2023-07-18T18:36:14.107Z,23.20
2023-07-18T18:39:02.985Z,23.10
2023-07-18T18:41:48.274Z,23.00
2023-07-18T18:44:34.042Z,22.90
2023-07-18T18:47:19.404Z,22.70
2023-07-18T18:50:06.666Z,22.70
2023-07-18T18:52:52.016Z,22.60
2023-07-18T18:55:37.725Z,22.60
2023-07-18T18:58:25.639Z,22.50
2023-07-18T19:01:10.978Z,22.50
2023-07-18T19:03:57.000Z,22.40
2023-07-18T19:06:43.020Z,22.40
2023-07-18T19:09:30.613Z,22.30
2023-07-18T19:12:16.256Z,22.20
2023-07-18T19:15:01.852Z,22.10
2023-07-18T19:17:47.396Z,22.00
2023-07-18T19:20:33.070Z,22.00
2023-07-18T19:23:18.396Z,21.90
2023-07-18T19:26:04.185Z,21.80
2023-07-18T19:28:49.718Z,21.90
2023-07-18T19:31:35.533Z,21.80
2023-07-18T19:34:20.869Z,21.80
2023-07-18T19:37:06.613Z,21.70
2023-07-18T19:39:52.246Z,21.70
2023-07-18T19:42:37.699Z,21.70
2023-07-18T19:45:23.675Z,21.60
2023-07-18T19:48:12.052Z,21.60
2023-07-18T19:50:57.685Z,21.60
2023-07-18T19:53:46.067Z,21.50
2023-07-18T19:56:33.104Z,21.40
2023-07-18T19:59:18.916Z,21.30
2023-07-18T20:02:04.570Z,21.30
2023-07-18T20:04:49.903Z,21.10
2023-07-18T20:07:35.383Z,21.00
2023-07-18T20:10:21.427Z,20.80
2023-07-18T20:13:06.784Z,20.60
2023-07-18T20:15:54.692Z,20.50
2023-07-18T20:18:40.238Z,20.40
2023-07-18T20:21:25.492Z,20.20
2023-07-18T20:24:11.197Z,20.20
2023-07-18T20:26:56.803Z,20.10
2023-07-18T20:29:44.488Z,20.10
2023-07-18T20:32:30.017Z,20.10
2023-07-18T20:35:15.731Z,20.10
2023-07-18T20:38:01.792Z,20.10
2023-07-18T20:40:47.500Z,20.10
2023-07-18T20:43:33.334Z,20.10
2023-07-18T20:46:19.335Z,20.10
2023-07-18T20:49:04.960Z,20.00
2023-07-18T20:51:50.409Z,19.90
2023-07-18T20:54:37.469Z,19.90
2023-07-18T20:57:22.954Z,19.90
2023-07-18T21:00:09.273Z,19.90
2023-07-18T21:02:59.484Z,19.80
2023-07-18T21:05:52.074Z,19.70
2023-07-18T21:08:38.744Z,19.70
2023-07-18T21:11:24.038Z,19.60
2023-07-18T21:14:09.693Z,19.60
2023-07-18T21:16:55.185Z,19.60
2023-07-18T21:19:40.667Z,19.60
2023-07-18T21:22:26.328Z,19.50
2023-07-18T21:25:12.254Z,19.50
2023-07-18T21:27:59.292Z,19.50
2023-07-18T21:30:44.685Z,19.40
2023-07-18T21:33:30.777Z,19.30
2023-07-18T21:36:16.296Z,19.30
2023-07-18T21:39:02.401Z,19.30
2023-07-18T21:41:48.056Z,19.30
2023-07-18T21:44:33.791Z,19.20
2023-07-18T21:47:19.645Z,19.20
2023-07-18T21:50:05.434Z,19.20
2023-07-18T21:52:50.931Z,19.20
2023-07-18T21:55:37.282Z,19.20
2023-07-18T21:58:22.684Z,19.20
2023-07-18T22:01:08.043Z,19.20
2023-07-18T22:03:53.618Z,19.20
2023-07-18T22:06:39.044Z,19.20
2023-07-18T22:09:24.708Z,19.20
2023-07-18T22:12:10.206Z,19.20
2023-07-18T22:14:57.079Z,19.30
2023-07-18T22:17:42.882Z,19.20
2023-07-18T22:20:32.508Z,19.20
2023-07-18T22:23:18.242Z,19.20
2023-07-18T22:26:14.015Z,19.10
2023-07-18T22:29:00.378Z,19.10
2023-07-18T22:31:45.834Z,19.10
2023-07-18T22:34:32.150Z,19.00
2023-07-18T22:37:18.100Z,19.00
2023-07-18T22:40:03.900Z,19.00
2023-07-18T22:42:52.795Z,19.00
2023-07-18T22:45:38.146Z,19.00
2023-07-18T22:48:23.838Z,19.10
2023-07-18T22:51:09.730Z,19.00
2023-07-18T22:53:55.206Z,19.00
2023-07-18T22:56:40.496Z,19.10
2023-07-18T22:59:26.062Z,19.10
2023-07-18T23:02:11.270Z,19.10
2023-07-18T23:04:56.980Z,19.00
2023-07-18T23:07:42.785Z,19.00
2023-07-18T23:10:28.288Z,19.10
2023-07-18T23:13:16.252Z,19.00
2023-07-18T23:16:02.146Z,19.00
2023-07-18T23:18:47.719Z,19.00
2023-07-18T23:21:35.548Z,19.00
2023-07-18T23:24:21.501Z,19.00
2023-07-18T23:27:07.212Z,18.90
2023-07-18T23:29:52.788Z,18.90
2023-07-18T23:32:39.594Z,18.90
2023-07-18T23:35:28.749Z,18.90
2023-07-18T23:38:14.494Z,18.90
2023-07-18T23:41:00.265Z,18.70
2023-07-18T23:43:48.558Z,18.60
2023-07-18T23:46:34.518Z,18.50
2023-07-18T23:49:19.884Z,18.40
2023-07-18T23:52:05.891Z,18.40
2023-07-18T23:54:51.841Z,18.40
2023-07-18T23:57:37.449Z,18.40
